Airfield :







YOU CAN JOIN US ON...

 
LOGIN :

Register | Disclaimer

   EN    FR    IT 

 









Legend :    VFR   Marginal VFR   IFR   Intensive IFR   Very Intensive IFR
Visi :
Ceiling :
>= 8 km
>= 3000ft
5 to 8 km
1000 to 3000 ft
1500m to 5 km
500 to 1000 ft
800 to 1500m
200 to 500 ft
< 800m
< 200 ft
Symbols :   Thunderstorms  Fog  Heavy snow  Heavy precipitations  Wind > 20 kt






- Airport Elevation : 26 ft
- IATA code : CAY


SOCA - Rochambeau

CURRENT METAR :
  • 020700Z AUTO 09003KT 060V140 7000 1900 +RA SCT016/// BKN029/// BKN072/// ///TCU 26/25 Q1011 TEMPO 3000 SHRA SCT008 FEW012CB BKN015TCU

EXPIRED METARs :
  • 020630Z AUTO 07004KT 040V100 9999 SCT020/// BKN028/// BKN033/// ///TCU 26/25 Q1011 TEMPO 3000 SHRA SCT008 FEW012CB BKN015TCU
  • 020600Z AUTO VRB02KT 9999 SCT021 BKN034 BKN049 26/26 Q1011 TEMPO 3000 SHRA SCT008 FEW012CB BKN015TCU
  • 020530Z AUTO VRB02KT 9999 BKN020 BKN025 BKN032 26/26 Q1011 TEMPO 3000 SHRA SCT008 FEW012CB BKN015TCU
  • 020500Z AUTO 08003KT 9999 BKN020 BKN033 OVC045 26/26 Q1011 TEMPO 3000 SHRA SCT008 FEW012CB BKN015TCU
  • 020430Z AUTO VRB02KT 9999 FEW016 BKN022 BKN028 25/25 Q1011 TEMPO 3000 SHRA SCT008 FEW012CB BKN015TCU

TAF TAF SOCA
Valid from the 02 at 06:00 until the 03 at 06:00 UTC


020400Z 0206/0306 04008KT 9999 SCT012 BKN030
PROB40
TEMPO 0206/0306 3000 SHRA SCT008 FEW012CB BKN015TCU
PROB30
TEMPO 0218/0306 1000 TSRA BKN004 BKN010CB



MET'MAP, your aeronautical weather chart ! - Copyright ORBIFLY December 2007 - Disclaimer

ORBIFLY MET'MAP TEAM :

Programming & Development : Alexandra Zaïnal
Concept & original design : Baudouin d'Aumeries
Assistance for programming : Marc-Olivier Méhu
Technical & hardware support : Manuel Goepfert

Contact : metmap@orbifly.com




SOURCES & CREDITS :

   NOAA